Flight Track Log - Related Links

Times and Time Zones

All times are in EDT time to prevent confusion due to time zone crossing. See the UAL407 flight status page for this flight to view local times or setup timezone preferences in your user account.

Time Position Orientation Groundspeed Altitude Reporting Facility
EDT Latitude Longitude Course Direction KTS MPH feet Rate Location/Type
Sun 11:19:26 AM 33.9333 -118.4500 55° Northeast 203 234 1,200  Level Southern California TRACON
Sun 11:20:38 AM 33.9064 -118.5431 251° West 243 280 3,900 2,328 Climbing Los Angeles Center
Sun 11:21:00 AM 34.1180 -118.0974 59° Northeast  Level FlightAware Approximate
Sun 11:21:40 AM 33.8522 -118.5667 200° South 253 291 6,400  Level Los Angeles Center
Sun 11:22:00 AM 34.1805 -117.9725 59° Northeast  Level FlightAware Approximate
Sun 11:22:42 AM 33.8678 -118.4919 76° East 262 302 8,800  Level Los Angeles Center
Sun 11:23:00 AM 34.2450 -117.8492 51° Northeast  Level FlightAware Approximate
Sun 11:23:43 AM 33.9167 -118.4458 38° Northeast 273 314 10,600  Level Los Angeles Center
Sun 11:24:00 AM 34.3123 -117.7327 55° Northeast  Level FlightAware Approximate
Sun 11:24:45 AM 33.9814 -118.3483 51° Northeast 310 357 13,000  Level Los Angeles Center
Sun 11:25:46 AM 34.0336 -118.2583 55° Northeast 321 369 15,300 2,146 Climbing Los Angeles Center
Sun 11:26:48 AM 34.0883 -118.1619 56° Northeast 337 388 17,400 2,049 Climbing Los Angeles Center
Sun 11:27:49 AM 34.1433 -118.0636 56° Northeast 348 400 19,500 2,000 Climbing Los Angeles Center
Sun 11:28:51 AM 34.1994 -117.9639 56° Northeast 355 409 21,500 1,790 Climbing Los Angeles Center
Sun 11:29:53 AM 34.2561 -117.8628 56° Northeast 361 415 23,200 1,561 Climbing Los Angeles Center
Sun 11:30:54 AM 34.3156 -117.7594 55° Northeast 370 426 24,700 927 Climbing Los Angeles Center
Sun 11:31:56 AM 34.3814 -117.6617 51° Northeast 374 430 25,100 838 Climbing Los Angeles Center
Sun 11:33:10 AM 34.4764 -117.5289 49° Northeast 375 432 26,600 1,135 Climbing Los Angeles Center
Sun 11:34:24 AM 34.5453 -117.4300 50° Northeast 382 440 27,900 1,176 Climbing Los Angeles Center
Sun 11:35:38 AM 34.6306 -117.3075 50° Northeast 393 452 29,500 1,279 Climbing Los Angeles Center
Sun 11:36:40 AM 34.7156 -117.1847 50° Northeast 398 458 30,800 1,073 Climbing Los Angeles Center
Sun 11:37:41 AM 34.7878 -117.0786 50° Northeast 408 470 31,700 1,073 Climbing Los Angeles Center
Sun 11:38:43 AM 34.8608 -116.9733 50° Northeast 410 472 33,000 1,355 Climbing Los Angeles Center
Sun 11:39:45 AM 34.9444 -116.8483 51° Northeast 401 461 34,500 976 Climbing Los Angeles Center
Sun 11:40:46 AM 35.0144 -116.7469 50° Northeast 395 455 35,000 244 Climbing Los Angeles Center
Sun 11:41:48 AM 35.0842 -116.6453 50° Northeast 392 451 35,000  Level Los Angeles Center
Sun 11:42:49 AM 35.1531 -116.5411 51° Northeast 395 455 35,000  Level Los Angeles Center
Sun 11:43:51 AM 35.2256 -116.4386 49° Northeast 398 458 35,000  Level Los Angeles Center
Sun 11:44:53 AM 35.2958 -116.3342 50° Northeast 398 458 35,000  Level Los Angeles Center
Sun 11:45:54 AM 35.3800 -116.2108 50° Northeast 396 456 35,000  Level Los Angeles Center
Sun 11:46:56 AM 35.4494 -116.1053 51° Northeast 397 457 35,000  Level Los Angeles Center
Sun 11:47:58 AM 35.5208 -116.0039 49° Northeast 393 452 35,000  Level Los Angeles Center
Sun 11:49:00 AM 35.5894 -115.8997 51° Northeast 393 452 35,000  Level Los Angeles Center
Sun 11:50:01 AM 35.6647 -115.7853 51° Northeast 393 452 35,000  Level Los Angeles Center
Sun 11:51:03 AM 35.7208 -115.7039 50° Northeast 392 451 35,000  Level Los Angeles Center
Sun 11:52:05 AM 35.8022 -115.5803 51° Northeast 389 448 35,000  Level Los Angeles Center
Sun 11:53:07 AM 35.8706 -115.4769 51° Northeast 390 449 35,000  Level Los Angeles Center
Sun 11:54:08 AM 35.9386 -115.3728 51° Northeast 392 451 35,000  Level Los Angeles Center
Sun 11:55:10 AM 36.0189 -115.2508 51° Northeast 383 441 35,000  Level Los Angeles Center
Sun 11:56:12 AM 36.0719 -115.1678 52° Northeast 385 443 35,000  Level Los Angeles Center
Sun 11:57:26 AM 36.1231 -115.0167 67° East 400 460 35,000  Level Los Angeles Center
Sun 11:58:28 AM 36.1689 -114.8614 70° East 401 461 35,000  Level Los Angeles Center
Sun 11:59:30 AM 36.2078 -114.7317 70° East 404 465 35,000  Level Los Angeles Center
Sun 12:00:32 PM 36.2472 -114.6033 69° East 401 461 35,000  Level Los Angeles Center
Sun 12:01:33 PM 36.2942 -114.4494 69° East 400 460 35,000  Level Los Angeles Center
Sun 12:02:35 PM 36.3336 -114.3211 69° East 400 460 35,000  Level Los Angeles Center
Sun 12:03:37 PM 36.3722 -114.1928 69° East 398 458 35,000  Level Los Angeles Center
Sun 12:04:39 PM 36.4100 -114.0639 70° East 399 459 35,000  Level Los Angeles Center
Sun 12:05:40 PM 36.4403 -113.9608 70° East 398 458 35,000  Level Los Angeles Center
Sun 12:06:42 PM 36.4850 -113.8072 70° East 396 456 35,000  Level Los Angeles Center
Sun 12:07:44 PM 36.5242 -113.6731 70° East 393 452 35,000  Level Los Angeles Center
Sun 12:08:46 PM 36.5606 -113.5464 70° East 392 451 35,000  Level Los Angeles Center
Sun 12:10:00 PM 36.5969 -113.4203 70° East 390 449 35,000  Level Los Angeles Center
Sun 12:11:02 PM 36.6386 -113.2408 74° East 388 447 35,000  Level Los Angeles Center
Sun 12:12:03 PM 36.6575 -113.1061 80° East 394 453 35,000  Level Los Angeles Center
Sun 12:13:17 PM 36.6769 -112.9719 80° East 395 455 35,000  Level Los Angeles Center
Sun 12:14:19 PM 36.7006 -112.8125 79° East 393 452 35,000  Level Los Angeles Center
Sun 12:15:21 PM 36.7194 -112.6800 80° East 392 451 35,000  Level Los Angeles Center
Sun 12:16:23 PM 36.7428 -112.5211 80° East 391 450 35,000  Level Los Angeles Center
Sun 12:17:24 PM 36.7589 -112.4156 79° East 390 449 35,000  Level Los Angeles Center
Sun 12:18:26 PM 36.7811 -112.2572 80° East 389 448 35,000  Level Los Angeles Center
Sun 12:19:28 PM 36.7989 -112.1261 80° East 388 447 35,000  Level Los Angeles Center
Sun 12:19:45 PM 36.8022 -112.0997 81° East 389 448 35,000  Level Denver Center
Sun 12:20:47 PM 36.8253 -111.9406 80° East 390 449 35,000  Level Denver Center
Sun 12:21:49 PM 36.8436 -111.8086 80° East 390 449 35,000  Level Denver Center
Sun 12:22:51 PM 36.8639 -111.6750 79° East 392 451 35,000  Level Denver Center
Sun 12:23:53 PM 36.8811 -111.5408 81° East 394 453 35,000  Level Denver Center
Sun 12:24:55 PM 36.9003 -111.4072 80° East 393 452 35,000  Level Denver Center
Sun 12:25:57 PM 36.9181 -111.2722 81° East 395 455 35,000  Level Denver Center
Sun 12:26:59 PM 36.9375 -111.1139 81° East 393 452 35,000  Level Denver Center
Sun 12:28:01 PM 36.9556 -110.9800 80° East 394 453 35,000  Level Denver Center
Sun 12:29:03 PM 36.9719 -110.8456 81° East 394 453 35,000  Level Denver Center
Sun 12:30:05 PM 36.9897 -110.7119 81° East 390 449 35,000  Level Denver Center
Sun 12:31:07 PM 37.0075 -110.5778 81° East 393 452 35,000  Level Denver Center
Sun 12:32:09 PM 37.0269 -110.4181 81° East 388 447 35,000  Level Denver Center
Sun 12:33:11 PM 37.0439 -110.2853 81° East 389 448 35,000  Level Denver Center
Sun 12:34:13 PM 37.0586 -110.1636 81° East 386 444 35,000  Level Denver Center
Sun 12:35:15 PM 37.0783 -110.0161 80° East 383 441 35,000  Level Denver Center
Sun 12:36:17 PM 37.0933 -109.8897 81° East 383 441 35,000  Level Denver Center
Sun 12:37:19 PM 37.1114 -109.7414 81° East 383 441 35,000  Level Denver Center
Sun 12:38:21 PM 37.1267 -109.6139 81° East 387 445 35,000  Level Denver Center
Sun 12:39:23 PM 37.1436 -109.4661 82° East 383 441 35,000  Level Denver Center
Sun 12:40:37 PM 37.1592 -109.3392 81° East 385 443 35,000  Level Denver Center
Sun 12:41:40 PM 37.1775 -109.1719 82° East 380 437 35,000  Level Denver Center
Sun 12:42:42 PM 37.1922 -109.0456 82° East 380 437 35,000  Level Denver Center
Sun 12:43:44 PM 37.2086 -108.8981 82° East 382 440 35,000  Level Denver Center
Sun 12:44:46 PM 37.2222 -108.7728 82° East 380 437 35,000  Level Denver Center
Sun 12:45:48 PM 37.2392 -108.6239 82° East 383 441 35,000  Level Denver Center
Sun 12:46:50 PM 37.2536 -108.4983 82° East 381 438 35,000  Level Denver Center
Sun 12:47:52 PM 37.2700 -108.3503 82° East 382 440 35,000  Level Denver Center
Sun 12:48:54 PM 37.2831 -108.2239 83° East 382 440 35,000  Level Denver Center
Sun 12:49:56 PM 37.2964 -108.0983 82° East 380 437 35,000  Level Denver Center
Sun 12:50:58 PM 37.3119 -107.9514 82° East 380 437 35,000  Level Denver Center
Sun 12:52:00 PM 37.3247 -107.8247 83° East 383 441 35,000  Level Denver Center
Sun 12:53:02 PM 37.3406 -107.6750 82° East 385 443 35,000  Level Denver Center
Sun 12:54:04 PM 37.3536 -107.5478 83° East 383 441 35,000  Level Denver Center
Sun 12:55:07 PM 37.3689 -107.3969 83° East 387 445 35,000  Level Denver Center
Sun 12:56:09 PM 37.3811 -107.2683 83° East 387 445 35,000  Level Denver Center
Sun 12:57:11 PM 37.3967 -107.1211 82° East 382 440 35,000  Level Denver Center
Sun 12:58:13 PM 37.4083 -106.9936 83° East 382 440 35,000  Level Denver Center
Sun 12:59:15 PM 37.4225 -106.8461 83° East 381 438 35,000  Level Denver Center
Sun 01:00:17 PM 37.4342 -106.7189 83° East 381 438 35,000  Level Denver Center
Sun 01:01:19 PM 37.4483 -106.5728 83° East 378 435 35,000  Level Denver Center
Sun 01:02:21 PM 37.4597 -106.4469 83° East 379 436 35,000  Level Denver Center
Sun 01:03:23 PM 37.4719 -106.3214 83° East 378 435 35,000  Level Denver Center
Sun 01:04:25 PM 37.4856 -106.1711 83° East 383 441 35,000  Level Denver Center
Sun 01:05:27 PM 37.4944 -106.0431 85° East 383 441 35,000  Level Denver Center
Sun 01:06:29 PM 37.5131 -105.8958 81° East 381 438 35,000  Level Denver Center
Sun 01:07:31 PM 37.5331 -105.7714 79° East 379 436 35,000  Level Denver Center
Sun 01:08:45 PM 37.5542 -105.6214 80° East 382 440 35,000 -44 Level Denver Center
Sun 01:09:48 PM 37.5758 -105.4719 80° East 388 447 34,900 -336 Descending Denver Center
Sun 01:10:50 PM 37.5978 -105.3211 80° East 393 452 34,300 -435 Descending Denver Center
Sun 01:11:52 PM 37.6153 -105.1908 80° East 393 452 34,000 -145 Descending Denver Center
Sun 01:12:54 PM 37.6403 -105.0375 78° East 398 458 34,000  Level Denver Center
Sun 01:13:56 PM 37.6589 -104.9044 80° East 401 461 34,000  Level Denver Center
Sun 01:14:58 PM 37.6811 -104.7503 80° East 399 459 34,000  Level Denver Center
Sun 01:16:00 PM 37.6981 -104.6178 81° East 399 459 34,000 97 Level Denver Center
Sun 01:17:02 PM 37.7192 -104.4650 80° East 395 455 34,200 290 Climbing Denver Center
Sun 01:18:04 PM 37.7369 -104.3350 80° East 391 450 34,600 387 Climbing Denver Center
Sun 01:19:06 PM 37.7553 -104.2036 80° East 393 452 35,000 194 Climbing Denver Center
Sun 01:20:08 PM 37.7764 -104.0464 80° East 400 460 35,000  Level Denver Center
Sun 01:21:10 PM 37.7928 -103.9142 81° East 397 457 35,000  Level Denver Center
Sun 01:22:12 PM 37.8128 -103.7617 81° East 392 451 35,000  Level Denver Center
Sun 01:23:14 PM 37.8292 -103.6333 81° East 386 444 35,000  Level Denver Center
Sun 01:24:17 PM 37.8483 -103.4836 81° East 386 444 35,000  Level Denver Center
Sun 01:25:19 PM 37.8639 -103.3550 81° East 386 444 35,000  Level Denver Center
Sun 01:26:21 PM 37.8814 -103.2250 80° East 389 448 35,000  Level Denver Center
Sun 01:27:23 PM 37.8983 -103.0719 82° East 392 451 35,000  Level Denver Center
Sun 01:28:25 PM 37.9164 -102.9406 80° East 394 453 35,000  Level Denver Center
Sun 01:29:26 PM 37.9344 -102.7853 82° East 399 459 35,000  Level Denver Center
Sun 01:30:28 PM 37.9503 -102.6533 81° East 397 457 35,000  Level Denver Center
Sun 01:31:30 PM 37.9689 -102.5000 81° East 395 455 35,000  Level Denver Center
Sun 01:32:32 PM 37.9844 -102.3725 81° East 397 457 35,000  Level Denver Center
Sun 01:33:34 PM 37.9903 -102.2122 87° East 407 468 35,000  Level Denver Center
Sun 01:34:36 PM 37.9911 -102.0722 90° East 414 476 35,000  Level Denver Center
Sun 01:35:38 PM 37.9936 -101.9083 89° East 417 480 35,000  Level Denver Center
Sun 01:36:40 PM 37.9958 -101.7686 89° East 415 478 35,000  Level Denver Center
Sun 01:37:54 PM 37.9969 -101.6017 89° East 424 488 35,000  Level Denver Center
Sun 01:38:56 PM 37.9978 -101.4361 90° East 421 484 35,000  Level Denver Center
Sun 01:39:58 PM 37.9994 -101.2697 89° East 420 483 35,000  Level Denver Center
Sun 01:41:00 PM 38.0003 -101.1256 90° East 425 489 35,000  Level Denver Center
Sun 01:42:26 PM 38.0011 -100.9336 90° East 424 488 35,000  Level Denver Center
Sun 01:43:28 PM 38.0019 -100.7403 90° East 426 490 35,000  Level Denver Center
Sun 01:44:28 PM 38.0022 -100.5944 90° East 427 491 35,000  Level Kansas City Center
Sun 01:45:30 PM 38.0006 -100.4511 91° East 425 489 35,000  Level Kansas City Center
Sun 01:46:31 PM 38.0006 -100.2833 90° East 426 490 35,000  Level Kansas City Center
Sun 01:47:33 PM 38.0003 -100.1383 90° East 428 493 35,000  Level Kansas City Center
Sun 01:48:35 PM 37.9994 -99.9925 90° East 429 494 35,000  Level Kansas City Center
Sun 01:49:37 PM 38.0000 -99.8233 90° East 430 495 35,000  Level Kansas City Center
Sun 01:50:39 PM 38.0019 -99.6789 89° East 430 495 35,000 97 Level Kansas City Center
Sun 01:51:41 PM 38.0033 -99.5072 89° East 433 498 35,200 484 Climbing Kansas City Center
Sun 01:52:43 PM 38.0022 -99.3700 91° East 435 501 36,000 927 Climbing Kansas City Center
Sun 01:53:44 PM 38.0028 -99.2161 90° East 437 503 37,100 1,024 Climbing Kansas City Center
Sun 01:54:46 PM 38.0039 -99.0339 90° East 432 497 38,100 581 Climbing Kansas City Center
Sun 01:55:48 PM 38.0039 -98.8814 90° East 433 498 38,300 290 Climbing Kansas City Center
Sun 01:56:50 PM 38.0044 -98.7247 90° East 443 510 38,700 339 Climbing Kansas City Center
Sun 01:57:52 PM 38.0044 -98.5664 90° East 448 516 39,000 145 Climbing Kansas City Center
Sun 01:58:54 PM 38.0044 -98.4067 90° East 453 521 39,000  Level Kansas City Center
Sun 01:59:58 PM 38.0036 -98.2461 90° East 456 525 39,000  Level Kansas City Center
Sun 02:01:00 PM 38.0019 -98.0728 91° East 462 532 39,000  Level Kansas City Center
Sun 02:02:02 PM 38.0108 -97.9078 86° East 468 539 39,000  Level Kansas City Center
Sun 02:03:03 PM 38.0400 -97.7461 77° East 462 532 39,000  Level Kansas City Center
Sun 02:04:05 PM 38.0694 -97.5503 79° East 470 541 39,000  Level Kansas City Center
Sun 02:05:07 PM 38.0936 -97.3919 79° East 469 540 39,000  Level Kansas City Center
Sun 02:06:09 PM 38.1189 -97.2300 79° East 468 539 39,000  Level Kansas City Center
Sun 02:07:10 PM 38.1428 -97.0675 79° East 468 539 39,000  Level Kansas City Center
Sun 02:08:12 PM 38.1664 -96.9061 79° East 467 537 39,000  Level Kansas City Center
Sun 02:09:14 PM 38.1847 -96.7439 82° East 466 536 39,000  Level Kansas City Center
Sun 02:10:16 PM 38.1928 -96.5775 86° East 470 541 39,000  Level Kansas City Center
Sun 02:11:18 PM 38.2008 -96.3861 87° East 466 536 39,000  Level Kansas City Center
Sun 02:12:19 PM 38.2081 -96.2283 87° East 468 539 39,000  Level Kansas City Center
Sun 02:13:21 PM 38.2158 -96.0411 87° East 476 548 39,000  Level Kansas City Center
Sun 02:14:23 PM 38.2225 -95.8806 87° East 476 548 39,000  Level Kansas City Center
Sun 02:15:25 PM 38.2294 -95.6947 87° East 473 544 39,000  Level Kansas City Center
Sun 02:16:27 PM 38.2358 -95.5328 87° East 478 550 39,000  Level Kansas City Center
Sun 02:17:28 PM 38.2433 -95.3458 87° East 476 548 39,000  Level Kansas City Center
Sun 02:18:30 PM 38.2481 -95.1850 88° East 477 549 39,000  Level Kansas City Center
Sun 02:19:32 PM 38.2547 -94.9953 87° East 479 551 39,000  Level Kansas City Center
Sun 02:20:34 PM 38.2608 -94.8314 87° East 482 555 39,000  Level Kansas City Center
Sun 02:21:36 PM 38.2675 -94.6403 87° East 484 557 39,000  Level Kansas City Center
Sun 02:22:37 PM 38.2753 -94.4781 86° East 483 556 39,000  Level Kansas City Center
Sun 02:23:39 PM 38.3083 -94.3211 75° East 478 550 39,000  Level Kansas City Center
Sun 02:24:41 PM 38.3494 -94.1414 74° East 476 548 39,000  Level Kansas City Center
Sun 02:25:43 PM 38.3847 -93.9831 74° East 477 549 39,000  Level Kansas City Center
Sun 02:26:45 PM 38.4214 -93.8181 74° East 480 552 39,000  Level Kansas City Center
Sun 02:27:46 PM 38.4592 -93.6506 74° East 485 558 39,000  Level Kansas City Center
Sun 02:28:48 PM 38.5036 -93.4511 74° East 485 558 39,000  Level Kansas City Center
Sun 02:29:50 PM 38.5406 -93.2819 74° East 489 563 39,000  Level Kansas City Center
Sun 02:30:52 PM 38.5775 -93.1147 74° East 488 562 39,000  Level Kansas City Center
Sun 02:31:54 PM 38.6144 -92.9453 74° East 489 563 39,000  Level Kansas City Center
Sun 02:32:56 PM 38.6500 -92.7761 75° East 490 564 39,000  Level Kansas City Center
Sun 02:33:58 PM 38.6858 -92.6044 75° East 492 566 39,000  Level Kansas City Center
Sun 02:35:00 PM 38.7211 -92.4358 75° East 490 564 39,000  Level Kansas City Center
Sun 02:36:01 PM 38.7561 -92.2642 75° East 491 565 39,000  Level Kansas City Center
Sun 02:37:03 PM 38.7908 -92.0942 75° East 490 564 39,000  Level Kansas City Center
Sun 02:38:05 PM 38.8319 -91.8900 75° East 491 565 39,000  Level Kansas City Center
Sun 02:39:07 PM 38.8600 -91.7556 75° East 487 560 39,000  Level Kansas City Center
Sun 02:40:09 PM 38.8969 -91.5714 75° East 487 560 39,000  Level Kansas City Center
Sun 02:41:11 PM 38.9314 -91.4039 75° East 485 558 39,000  Level Kansas City Center
Sun 02:42:13 PM 38.9644 -91.2358 76° East 485 558 39,000  Level Kansas City Center
Sun 02:43:15 PM 39.0053 -91.0331 75° East 487 560 39,000  Level Kansas City Center
Sun 02:44:17 PM 39.0389 -90.8625 76° East 489 563 39,000  Level Kansas City Center
Sun 02:45:19 PM 39.0725 -90.6900 76° East 493 567 39,000  Level Kansas City Center
Sun 02:46:21 PM 39.1069 -90.5156 76° East 497 572 39,000  Level Kansas City Center
Sun 02:47:23 PM 39.1397 -90.3411 76° East 498 573 39,000  Level Kansas City Center
Sun 02:48:24 PM 39.1714 -90.1669 77° East 497 572 39,000  Level Kansas City Center
Sun 02:49:26 PM 39.2033 -89.9922 77° East 498 573 39,000  Level Kansas City Center
Sun 02:50:28 PM 39.2361 -89.8183 76° East 498 573 39,000  Level Kansas City Center
Sun 02:51:30 PM 39.2739 -89.6094 77° East 497 572 39,000  Level Kansas City Center
Sun 02:52:32 PM 39.3058 -89.4339 77° East 500 575 39,000  Level Kansas City Center
Sun 02:53:34 PM 39.3375 -89.2611 77° East 498 573 39,000  Level Kansas City Center
Sun 02:54:36 PM 39.3686 -89.0878 77° East 497 572 39,000  Level Kansas City Center
Sun 02:55:38 PM 39.3978 -88.9131 78° East 498 573 39,000  Level Kansas City Center
Sun 02:56:40 PM 39.4339 -88.7072 77° East 500 575 39,000  Level Kansas City Center
Sun 02:57:42 PM 39.4611 -88.5533 77° East 499 574 39,000  Level Kansas City Center
Sun 02:58:44 PM 39.4908 -88.3783 78° East 496 571 39,000  Level Kansas City Center
Sun 02:59:46 PM 39.5289 -88.1636 77° East 502 578 39,000  Level Kansas City Center
Sun 03:00:48 PM 39.5572 -87.9881 78° East 500 575 39,000  Level Kansas City Center
Sun 03:01:50 PM 39.5864 -87.8114 78° East 499 574 39,000  Level Kansas City Center
Sun 03:02:32 PM 39.6019 -87.7097 79° East 497 572 39,000  Level Indianapolis Center
Sun 03:03:34 PM 39.6308 -87.5342 78° East 498 573 39,000  Level Indianapolis Center
Sun 03:04:36 PM 39.6658 -87.3225 78° East 500 575 39,000  Level Indianapolis Center
Sun 03:05:37 PM 39.6933 -87.1456 79° East 502 578 39,000  Level Indianapolis Center
Sun 03:06:39 PM 39.7225 -86.9686 78° East 503 579 39,000  Level Indianapolis Center
Sun 03:07:41 PM 39.7506 -86.7906 78° East 504 580 39,000  Level Indianapolis Center
Sun 03:08:43 PM 39.7778 -86.6128 79° East 502 578 39,000  Level Indianapolis Center
Sun 03:09:45 PM 39.8053 -86.4322 79° East 505 581 39,000  Level Indianapolis Center
Sun 03:10:47 PM 39.8408 -86.2450 76° East 505 581 39,000  Level Indianapolis Center
Sun 03:11:48 PM 39.8781 -86.0706 74° East 504 580 39,000  Level Indianapolis Center
Sun 03:12:50 PM 39.9153 -85.8947 75° East 503 579 39,000  Level Indianapolis Center
Sun 03:13:52 PM 39.9594 -85.6839 75° East 504 580 39,000  Level Indianapolis Center
Sun 03:14:54 PM 39.9969 -85.5072 74° East 507 583 39,000  Level Indianapolis Center
Sun 03:15:56 PM 40.0331 -85.3308 75° East 506 582 39,000  Level Indianapolis Center
Sun 03:16:58 PM 40.0686 -85.1531 75° East 507 583 39,000  Level Indianapolis Center
Sun 03:18:00 PM 40.1208 -84.9833 68° East 506 582 39,000  Level Indianapolis Center
Sun 03:19:02 PM 40.1939 -84.8061 62° Northeast 505 581 39,000  Level Indianapolis Center
Sun 03:20:04 PM 40.2617 -84.6414 62° Northeast 507 583 39,000  Level Indianapolis Center
Sun 03:21:06 PM 40.3283 -84.4775 62° Northeast 506 582 39,000  Level Indianapolis Center
Sun 03:22:08 PM 40.3947 -84.3125 62° Northeast 505 581 39,000  Level Indianapolis Center
Sun 03:23:10 PM 40.4611 -84.1472 62° Northeast 504 580 39,000  Level Indianapolis Center
Sun 03:24:11 PM 40.5386 -83.9556 62° Northeast 503 579 39,000  Level Indianapolis Center
Sun 03:25:13 PM 40.6033 -83.7889 63° Northeast 505 581 39,000  Level Indianapolis Center
Sun 03:26:15 PM 40.6692 -83.6236 62° Northeast 503 579 39,000  Level Indianapolis Center
Sun 03:26:34 PM 40.6931 -83.5708 59° Northeast 498 573 39,000  Level Cleveland Center
Sun 03:27:34 PM 40.7533 -83.4064 64° Northeast 504 580 39,000  Level Cleveland Center
Sun 03:28:34 PM 40.8050 -83.2550 66° East 509 586 39,000  Level Cleveland Center
Sun 03:29:34 PM 40.8469 -83.0592 74° East 504 580 39,000  Level Cleveland Center
Sun 03:30:34 PM 40.8836 -82.9011 73° East 498 573 39,000  Level Cleveland Center
Sun 03:31:34 PM 40.9247 -82.7211 73° East 498 573 39,000  Level Cleveland Center
Sun 03:32:34 PM 40.9656 -82.5436 73° East 498 573 39,000  Level Cleveland Center
Sun 03:33:34 PM 41.0058 -82.3633 73° East 493 567 39,000  Level Cleveland Center
Sun 03:34:34 PM 41.0461 -82.1856 73° East 493 567 39,000  Level Cleveland Center
Sun 03:35:34 PM 41.0839 -82.0044 74° East 493 567 39,000  Level Cleveland Center
Sun 03:36:34 PM 41.1236 -81.8264 73° East 493 567 39,000  Level Cleveland Center
Sun 03:37:34 PM 41.1650 -81.6422 73° East 498 573 39,000  Level Cleveland Center
Sun 03:38:34 PM 41.2019 -81.4633 75° East 498 573 39,000  Level Cleveland Center
Sun 03:39:34 PM 41.2386 -81.2844 75° East 498 573 39,000  Level Cleveland Center
Sun 03:40:34 PM 41.2750 -81.1025 75° East 498 573 39,000  Level Cleveland Center
Sun 03:41:34 PM 41.3133 -80.9203 74° East 509 586 39,000  Level Cleveland Center
Sun 03:42:34 PM 41.3511 -80.7381 75° East 509 586 39,000  Level Cleveland Center
Sun 03:43:34 PM 41.3908 -80.5500 74° East 509 586 39,000  Level Cleveland Center
Sun 03:44:34 PM 41.4325 -80.3506 74° East 509 586 39,000  Level Cleveland Center
Sun 03:45:34 PM 41.4672 -80.1869 74° East 509 586 39,000  Level Cleveland Center
Sun 03:46:34 PM 41.5061 -79.9869 75° East 509 586 39,000  Level Cleveland Center
Sun 03:47:34 PM 41.5406 -79.8036 76° East 509 586 39,000  Level Cleveland Center
Sun 03:48:34 PM 41.5472 -79.6178 87° East 509 586 39,000  Level Cleveland Center
Sun 03:49:34 PM 41.5456 -79.4289 91° East 504 580 39,000  Level Cleveland Center
Sun 03:50:34 PM 41.5436 -79.2431 91° East 499 574 39,000  Level Cleveland Center
Sun 03:51:34 PM 41.5392 -79.0544 92° East 494 568 39,000 -250 Level Cleveland Center
Sun 03:52:34 PM 41.5344 -78.8661 92° East 494 568 38,500 -850 Descending Cleveland Center
Sun 03:53:34 PM 41.5314 -78.6775 91° East 494 568 37,300 -1,000 Descending Cleveland Center
Sun 03:54:34 PM 41.5264 -78.5114 92° East 494 568 36,500 -609 Descending Cleveland Center
Sun 03:55:42 PM 41.5217 -78.3081 92° East 501 577 36,000 -844 Descending New York Center
Sun 03:56:42 PM 41.5169 -78.1189 92° East 507 583 34,700 -2,066 Descending New York Center
Sun 03:57:44 PM 41.5072 -77.9378 94° East 501 577 31,800 -1,850 Descending New York Center
Sun 03:58:42 PM 41.4808 -77.7494 101° East 506 582 31,000 -403 Descending New York Center
Sun 03:59:43 PM 41.4542 -77.5639 101° East 506 582 31,000 -198 Level New York Center
Sun 04:00:43 PM 41.4219 -77.3586 102° East 519 597 30,600 -700 Descending New York Center
Sun 04:01:43 PM 41.3961 -77.1817 101° East 498 573 29,600 -1,050 Descending New York Center
Sun 04:02:43 PM 41.3717 -77.0161 101° East 477 549 28,500 -1,322 Descending New York Center
Sun 04:03:41 PM 41.3486 -76.8622 101° East 451 519 27,000 -1,525 Descending New York Center
Sun 04:04:41 PM 41.3206 -76.7131 104° East 428 493 25,500 -1,537 Descending New York Center
Sun 04:05:42 PM 41.2836 -76.5772 110° East 406 467 23,900 -1,574 Descending New York Center
Sun 04:06:43 PM 41.2497 -76.4583 111° Southeast 384 442 22,300 -1,636 Descending New York Center
Sun 04:07:43 PM 41.2164 -76.3289 109° East 377 434 20,600 -1,664 Descending New York Center
Sun 04:08:42 PM 41.1811 -76.1908 109° East 384 442 19,000 -1,765 Descending New York Center
Sun 04:09:42 PM 41.1400 -76.0414 110° East 401 461 17,100 -1,636 Descending New York Center
Sun 04:10:43 PM 41.1042 -75.9092 110° East 396 456 15,700 -1,311 Descending New York Center
Sun 04:11:41 PM 41.0681 -75.7772 110° East 391 450 14,500 -1,210 Descending New York Center
Sun 04:12:42 PM 41.0356 -75.6592 110° East 380 437 13,300 -744 Descending New York Center
Sun 04:13:42 PM 40.9953 -75.5217 111° Southeast 380 437 13,000 -600 Descending New York Center
Sun 04:14:42 PM 40.9642 -75.4094 110° East 374 430 12,100 -942 Descending New York Center
Sun 04:15:43 PM 40.9333 -75.2947 110° East 351 404 11,100 -1,438 Descending New York Center
Sun 04:16:43 PM 40.9006 -75.1717 109° East 328 377 9,200 -1,537 Descending New York Center
Sun 04:17:44 PM 40.8689 -75.0656 112° Southeast 315 362 8,000 -1,109 Descending New York Center
Sun 04:18:42 PM 40.8394 -74.9622 111° Southeast 309 356 7,000 -915 Descending New York Center
Sun 04:19:42 PM 40.8075 -74.8561 112° Southeast 304 350 6,200 -496 Descending New York Center
Sun 04:20:43 PM 40.7708 -74.7744 121° Southeast 299 344 6,000 -99 Descending New York Center
Sun 04:21:43 PM 40.7350 -74.6653 113° Southeast 294 338 6,000  Level New York Center
Sun 04:22:41 PM 40.7786 -74.5994 49° Northeast 224 258 6,000 -158 Level New York Center
Sun 04:22:59 PM 40.8000 -74.5833 30° Northeast 273 314 5,800 -769 Descending New York TRACON
Sun 04:23:59 PM 40.8667 -74.5333 30° Northeast 272 313 5,000 -462 Descending New York TRACON
Sun 04:24:43 PM 40.9028 -74.4967 37° Northeast 258 297 5,000  Level New York Center
Sun 04:25:44 PM 40.9736 -74.4344 34° Northeast 269 310 5,000  Level New York Center
Sun 04:26:41 PM 41.0131 -74.3681 52° Northeast 255 293 5,000  Level New York Center
Sun 04:26:59 PM 41.0333 -74.3333 52° Northeast 240 276 5,000  Level New York TRACON
Sun 04:27:59 PM 41.0333 -74.2500 90° East 247 284 5,000  Level New York TRACON
Sun 04:28:59 PM 41.0000 -74.1667 118° Southeast 249 287 5,000 -50 Level New York TRACON
Sun 04:29:59 PM 40.9667 -74.1000 123° Southeast 248 285 4,900 -500 Descending New York TRACON
Sun 04:30:59 PM 40.9167 -74.0667 153° Southeast 222 255 4,000 -950 Descending New York TRACON
Sun 04:31:59 PM 40.8500 -74.0667 180° South 208 239 3,000 -850 Descending New York TRACON
Sun 04:32:59 PM 40.8000 -74.0833 194° South 190 219 2,300 -700 Descending New York TRACON

Login

Don't have an account? Register now (free) for customized features, flight alerts, and more!